createdAt,value
2018-07-27T19:45:01.288Z,23.32
2018-07-27T19:47:30.147Z,23.35
2018-07-27T19:50:38.063Z,23.33
2018-07-27T19:53:07.088Z,23.27
2018-07-27T19:55:37.294Z,23.07
2018-07-27T19:58:07.833Z,22.97
2018-07-27T20:00:36.680Z,22.86
2018-07-27T20:03:05.768Z,22.75
2018-07-27T20:05:34.675Z,22.57
2018-07-27T20:08:03.544Z,22.29
2018-07-27T20:10:32.386Z,22.20
2018-07-27T20:13:02.628Z,22.05
2018-07-27T20:15:31.567Z,21.96
2018-07-27T20:18:00.394Z,21.82
2018-07-27T20:20:30.496Z,21.80
2018-07-27T20:23:00.675Z,21.83
2018-07-27T20:25:29.507Z,21.81
2018-07-27T20:27:58.528Z,21.77
2018-07-27T20:30:27.559Z,21.77
2018-07-27T20:32:56.469Z,21.74
2018-07-27T20:35:25.300Z,21.78
2018-07-27T20:37:54.731Z,21.68
2018-07-27T20:40:23.560Z,21.54
2018-07-27T20:42:52.442Z,21.50
2018-07-27T20:45:21.548Z,21.57
2018-07-27T20:47:50.375Z,21.56
2018-07-27T20:50:19.312Z,21.56
2018-07-27T20:52:48.180Z,21.61
2018-07-27T20:55:18.280Z,21.81
2018-07-27T20:57:47.196Z,21.89
2018-07-27T21:00:16.016Z,21.98
2018-07-27T21:02:45.553Z,21.95
2018-07-27T21:05:15.276Z,22.05
2018-07-27T21:07:44.303Z,22.08
2018-07-27T21:10:13.908Z,22.01
2018-07-27T21:12:44.803Z,21.99
2018-07-27T21:15:13.610Z,21.88
2018-07-27T21:17:42.422Z,21.89
2018-07-27T21:20:11.296Z,21.96
2018-07-27T21:22:40.111Z,22.02
2018-07-27T21:25:09.060Z,22.00
2018-07-27T21:27:37.883Z,22.10
2018-07-27T21:30:08.295Z,22.09
2018-07-27T21:32:37.081Z,21.81
2018-07-27T21:35:05.989Z,21.67
2018-07-27T21:37:36.212Z,21.59
2018-07-27T21:40:05.136Z,21.55
2018-07-27T21:42:34.008Z,21.50
2018-07-27T21:45:02.857Z,21.61
2018-07-27T21:47:31.680Z,21.59
2018-07-27T21:50:00.471Z,21.54
2018-07-27T21:52:29.326Z,21.52
2018-07-27T21:54:58.222Z,21.54
2018-07-27T21:57:27.026Z,21.58
2018-07-27T21:59:55.826Z,21.52
2018-07-27T22:02:24.699Z,21.55
2018-07-27T22:04:53.642Z,21.56
2018-07-27T22:07:22.598Z,21.59
2018-07-27T22:09:52.841Z,21.73
2018-07-27T22:12:21.623Z,21.44
2018-07-27T22:14:50.435Z,21.21
2018-07-27T22:17:19.322Z,21.24
2018-07-27T22:19:48.288Z,21.40
2018-07-27T22:22:17.101Z,21.48
2018-07-27T22:24:45.933Z,21.38
2018-07-27T22:27:14.759Z,21.36
2018-07-27T22:29:43.638Z,21.40
2018-07-27T22:32:12.466Z,21.36
2018-07-27T22:34:41.295Z,21.37
2018-07-27T22:37:10.068Z,21.45
2018-07-27T22:39:38.860Z,21.58
2018-07-27T22:42:07.719Z,21.57
2018-07-27T22:44:36.480Z,21.59
2018-07-27T22:47:05.308Z,21.58
2018-07-27T22:49:34.119Z,21.55
2018-07-27T22:52:02.921Z,21.62
2018-07-27T22:54:32.090Z,21.64
2018-07-27T22:57:00.859Z,21.62
2018-07-27T22:59:29.658Z,21.51
2018-07-27T23:01:58.450Z,21.52
2018-07-27T23:04:27.465Z,21.48
2018-07-27T23:06:56.312Z,21.52
2018-07-27T23:09:25.114Z,21.44
2018-07-27T23:11:54.164Z,21.46
2018-07-27T23:14:22.986Z,21.53
2018-07-27T23:16:51.981Z,21.47
2018-07-27T23:19:20.764Z,21.50
2018-07-27T23:21:49.655Z,21.55
2018-07-27T23:24:18.708Z,21.60
2018-07-27T23:26:47.820Z,21.60
2018-07-27T23:29:16.635Z,21.63
2018-07-27T23:31:45.479Z,21.53
2018-07-27T23:34:14.234Z,21.52
2018-07-27T23:36:43.003Z,21.61
2018-07-27T23:39:14.610Z,21.45
2018-07-27T23:41:44.180Z,21.43
2018-07-27T23:44:12.963Z,21.30
2018-07-27T23:46:41.790Z,21.47
2018-07-27T23:49:10.630Z,21.55
2018-07-27T23:51:39.420Z,21.46
2018-07-27T23:54:08.319Z,21.55
2018-07-27T23:56:37.151Z,21.61
2018-07-27T23:59:05.951Z,21.59
